Terminal Aerodrome Forecast
Issued by NWS Pocatello, ID

Home | Current Version | Previous Version | Text Only | Print | Product List | Glossary On
Versions: 1 2 3 4 5 6 7 8 9 10 11 12 13 14 15
451
FTUS45 KPIH 232324
TAFBYI
TAF
KBYI 232324Z 2400/2424 28018G28KT P6SM SKC
     FM240200 24009KT P6SM SKC
     FM241600 15009KT P6SM SCT200
     FM242000 16012G22KT P6SM SCT080 OVC150=

USA.gov is the U.S. government's official web portal to all federal, state and local government web resources and services.